Wetterdaten: Woche 10.03.08 - 16.03.08 (KW11)
Datum Zeit Temperatur Luftfeuchte Luftdruck Niederschlag Wind Richtung Sonnenschein Solar Taupunkt Windchill Windben
10.03.2008 00:00 5.9 C 91 % 1006.9 hPa 0.0 l/m 1.1 km/h (1 Bft) SO 0.00 h 0 W/m 4.5 C 5.9 C 2.1 km/h (1 Bft)
10.03.2008 01:00 5.9 C 89 % 1006.4 hPa 0.0 l/m 2.0 km/h (1 Bft) SO 0.00 h 0 W/m 4.2 C 5.7 C 3.1 km/h (1 Bft)
10.03.2008 02:00 6.4 C 84 % 1005.6 hPa 0.0 l/m 2.4 km/h (1 Bft) S 0.00 h 0 W/m 3.9 C 6.3 C 4.3 km/h (1 Bft)
10.03.2008 03:00 6.1 C 84 % 1004.6 hPa 0.0 l/m 3.0 km/h (1 Bft) S-SO 0.00 h 0 W/m 3.6 C 5.8 C 5.2 km/h (1 Bft)
10.03.2008 04:00 4.7 C 89 % 1003.9 hPa 0.0 l/m 1.6 km/h (1 Bft) S-SO 0.00 h 0 W/m 3.1 C 4.6 C 2.7 km/h (1 Bft)
10.03.2008 05:00 3.7 C 93 % 1003.6 hPa 0.0 l/m 0.9 km/h (0 Bft) O-NO 0.00 h 0 W/m 2.7 C 3.7 C 1.9 km/h (1 Bft)
10.03.2008 06:00 2.7 C 97 % 1003.4 hPa 0.0 l/m 2.2 km/h (1 Bft) O 0.00 h 6 W/m 2.3 C 2.5 C 3.5 km/h (1 Bft)
10.03.2008 07:00 2.8 C 98 % 1003.2 hPa 0.0 l/m 0.6 km/h (0 Bft) O 0.35 h 51 W/m 2.5 C 2.8 C 1.5 km/h (1 Bft)
10.03.2008 08:00 5.3 C 91 % 1002.2 hPa 0.0 l/m 2.7 km/h (1 Bft) SO 0.58 h 134 W/m 3.9 C 5.0 C 4.6 km/h (1 Bft)
10.03.2008 09:00 7.5 C 77 % 1001.0 hPa 0.0 l/m 2.8 km/h (1 Bft) W-NW 0.48 h 256 W/m 3.6 C 7.2 C 5.6 km/h (1 Bft)
10.03.2008 10:00 8.3 C 73 % 999.4 hPa 0.0 l/m 3.1 km/h (1 Bft) N 0.32 h 372 W/m 3.8 C 8.2 C 4.9 km/h (1 Bft)
10.03.2008 11:00 9.6 C 66 % 997.8 hPa 0.0 l/m 1.8 km/h (1 Bft) O 0.63 h 396 W/m 3.6 C 9.6 C 3.9 km/h (1 Bft)
10.03.2008 12:00 10.7 C 61 % 996.6 hPa 0.0 l/m 2.9 km/h (1 Bft) S-SO 0.75 h 467 W/m 3.4 C 10.7 C 5.9 km/h (2 Bft)
10.03.2008 13:00 10.8 C 59 % 995.0 hPa 0.0 l/m 4.4 km/h (1 Bft) S-SO 0.00 h 247 W/m 3.2 C 10.8 C 8.3 km/h (2 Bft)
10.03.2008 14:00 10.4 C 60 % 993.4 hPa 0.0 l/m 2.8 km/h (1 Bft) SW 0.00 h 157 W/m 3.1 C 10.4 C 5.8 km/h (2 Bft)
10.03.2008 15:00 10.2 C 61 % 992.2 hPa 0.0 l/m 2.7 km/h (1 Bft) W-SW 0.00 h 139 W/m 3.0 C 10.2 C 4.7 km/h (1 Bft)
10.03.2008 16:00 10.0 C 63 % 991.8 hPa 0.0 l/m 2.3 km/h (1 Bft) W 0.00 h 67 W/m 3.2 C 10.0 C 4.2 km/h (1 Bft)
10.03.2008 17:00 9.5 C 66 % 991.8 hPa 0.0 l/m 1.7 km/h (1 Bft) S 0.00 h 13 W/m 3.5 C 9.5 C 3.6 km/h (1 Bft)
10.03.2008 18:00 9.3 C 69 % 992.3 hPa 0.2 l/m 7.0 km/h (2 Bft) SW 0.00 h 0 W/m 4.0 C 8.5 C 13.2 km/h (3 Bft)
10.03.2008 19:00 7.5 C 86 % 993.4 hPa 0.8 l/m 6.2 km/h (2 Bft) S-SW 0.00 h 0 W/m 5.3 C 6.6 C 11.8 km/h (2 Bft)
10.03.2008 20:00 6.7 C 92 % 993.7 hPa 1.0 l/m 6.2 km/h (2 Bft) S-SO 0.00 h 0 W/m 5.5 C 5.8 C 11.4 km/h (2 Bft)
10.03.2008 21:00 6.3 C 92 % 994.3 hPa 0.2 l/m 5.9 km/h (2 Bft) S-SW 0.00 h 0 W/m 5.0 C 5.3 C 11.6 km/h (2 Bft)
10.03.2008 22:00 6.6 C 87 % 994.4 hPa 0.0 l/m 4.5 km/h (1 Bft) W-SW 0.00 h 0 W/m 4.5 C 6.0 C 9.1 km/h (2 Bft)
10.03.2008 23:00 7.5 C 76 % 994.7 hPa 0.0 l/m 8.6 km/h (2 Bft) W-SW 0.00 h 0 W/m 3.5 C 6.0 C 14.7 km/h (3 Bft)
11.03.2008 00:00 7.2 C 76 % 995.1 hPa 0.0 l/m 5.8 km/h (2 Bft) SW 0.00 h 0 W/m 3.2 C 6.4 C 10.6 km/h (2 Bft)
11.03.2008 01:00 6.8 C 76 % 995.6 hPa 0.0 l/m 2.9 km/h (1 Bft) W-SW 0.00 h 0 W/m 2.9 C 6.6 C 6.3 km/h (2 Bft)
11.03.2008 02:00 7.0 C 74 % 996.0 hPa 0.0 l/m 6.2 km/h (2 Bft) W-SW 0.00 h 0 W/m 2.6 C 6.0 C 11.1 km/h (2 Bft)
11.03.2008 03:00 6.8 C 75 % 996.3 hPa 0.0 l/m 6.8 km/h (2 Bft) W-SW 0.00 h 0 W/m 2.7 C 5.7 C 11.3 km/h (2 Bft)
11.03.2008 04:00 6.8 C 72 % 996.8 hPa 0.0 l/m 7.9 km/h (2 Bft) W-SW 0.00 h 0 W/m 2.1 C 5.4 C 13.5 km/h (3 Bft)
11.03.2008 05:00 7.2 C 69 % 997.7 hPa 0.0 l/m 9.8 km/h (2 Bft) W-SW 0.00 h 0 W/m 1.8 C 5.4 C 16.2 km/h (3 Bft)
11.03.2008 06:00 6.9 C 69 % 998.5 hPa 0.0 l/m 10.8 km/h (2 Bft) W-SW 0.00 h 5 W/m 1.6 C 5.0 C 17.2 km/h (3 Bft)
11.03.2008 07:00 6.9 C 66 % 999.8 hPa 0.0 l/m 13.1 km/h (3 Bft) W 0.20 h 48 W/m 0.9 C 4.4 C 20.7 km/h (4 Bft)
11.03.2008 08:00 7.3 C 62 % 1001.1 hPa 0.0 l/m 14.7 km/h (3 Bft) W-SW 0.07 h 88 W/m 0.5 C 4.8 C 22.0 km/h (4 Bft)
11.03.2008 09:00 8.2 C 59 % 1002.0 hPa 0.0 l/m 11.2 km/h (2 Bft) W 0.40 h 202 W/m 0.6 C 6.3 C 18.3 km/h (3 Bft)
11.03.2008 10:00 7.5 C 70 % 1003.0 hPa 0.2 l/m 8.2 km/h (2 Bft) W-SW 0.05 h 170 W/m 2.3 C 6.1 C 14.9 km/h (3 Bft)
11.03.2008 11:00 7.6 C 73 % 1003.4 hPa 0.0 l/m 7.0 km/h (2 Bft) W-SW 0.00 h 163 W/m 3.1 C 6.6 C 12.0 km/h (2 Bft)
11.03.2008 12:00 8.5 C 65 % 1003.3 hPa 0.0 l/m 10.1 km/h (2 Bft) W-SW 0.20 h 280 W/m 2.2 C 7.0 C 16.8 km/h (3 Bft)
11.03.2008 13:00 10.4 C 51 % 1002.9 hPa 0.0 l/m 14.3 km/h (3 Bft) W-SW 0.33 h 380 W/m 0.6 C 10.3 C 23.8 km/h (4 Bft)
11.03.2008 14:00 10.9 C 45 % 1002.8 hPa 0.0 l/m 14.9 km/h (3 Bft) W-SW 0.60 h 364 W/m -0.7 C 10.8 C 23.7 km/h (4 Bft)
11.03.2008 15:00 10.3 C 54 % 1002.6 hPa 0.0 l/m 11.3 km/h (2 Bft) SW 0.17 h 193 W/m 1.4 C 9.7 C 20.3 km/h (4 Bft)
11.03.2008 16:00 9.8 C 60 % 1002.8 hPa 0.0 l/m 8.9 km/h (2 Bft) W-SW 0.05 h 101 W/m 2.3 C 9.1 C 14.9 km/h (3 Bft)
11.03.2008 17:00 8.7 C 69 % 1003.1 hPa 0.0 l/m 5.7 km/h (1 Bft) SW 0.13 h 51 W/m 3.3 C 8.2 C 10.6 km/h (2 Bft)
11.03.2008 18:00 7.9 C 77 % 1003.3 hPa 0.2 l/m 7.5 km/h (2 Bft) SW 0.00 h 11 W/m 4.0 C 6.8 C 14.8 km/h (3 Bft)
11.03.2008 19:00 6.5 C 89 % 1003.7 hPa 1.0 l/m 5.9 km/h (2 Bft) S-SW 0.00 h 0 W/m 4.9 C 5.6 C 11.5 km/h (2 Bft)
11.03.2008 20:00 6.8 C 93 % 1003.6 hPa 0.6 l/m 2.5 km/h (1 Bft) W-SW 0.00 h 0 W/m 5.7 C 6.5 C 4.8 km/h (1 Bft)
11.03.2008 21:00 6.7 C 97 % 1004.1 hPa 1.0 l/m 2.1 km/h (1 Bft) W-SW 0.00 h 0 W/m 6.3 C 6.6 C 4.4 km/h (1 Bft)
11.03.2008 22:00 7.3 C 97 % 1004.6 hPa 0.2 l/m 6.4 km/h (2 Bft) S 0.00 h 0 W/m 6.9 C 6.3 C 12.3 km/h (3 Bft)
11.03.2008 23:00 8.0 C 93 % 1004.4 hPa 0.2 l/m 7.0 km/h (2 Bft) S 0.00 h 0 W/m 6.8 C 6.9 C 13.4 km/h (3 Bft)
12.03.2008 00:00 8.6 C 94 % 1003.7 hPa 2.4 l/m 4.7 km/h (1 Bft) S 0.00 h 0 W/m 7.7 C 8.2 C 9.5 km/h (2 Bft)
12.03.2008 01:00 9.2 C 94 % 1003.0 hPa 0.2 l/m 5.7 km/h (1 Bft) W-SW 0.00 h 0 W/m 8.2 C 8.6 C 11.0 km/h (2 Bft)
12.03.2008 02:00 9.7 C 90 % 1002.7 hPa 1.2 l/m 7.7 km/h (2 Bft) SW 0.00 h 0 W/m 8.2 C 8.8 C 14.6 km/h (3 Bft)
12.03.2008 03:00 9.7 C 91 % 1002.3 hPa 0.6 l/m 11.5 km/h (2 Bft) SW 0.00 h 0 W/m 8.4 C 8.1 C 21.0 km/h (4 Bft)
12.03.2008 04:00 10.2 C 88 % 1002.2 hPa 0.4 l/m 11.5 km/h (2 Bft) SW 0.00 h 0 W/m 8.3 C 9.9 C 20.8 km/h (4 Bft)
12.03.2008 05:00 10.4 C 87 % 1002.4 hPa 0.6 l/m 11.6 km/h (2 Bft) SW 0.00 h 0 W/m 8.3 C 10.4 C 21.4 km/h (4 Bft)
12.03.2008 06:00 10.3 C 88 % 1002.2 hPa 1.2 l/m 14.7 km/h (3 Bft) SW 0.00 h 0 W/m 8.3 C 10.3 C 26.4 km/h (4 Bft)
12.03.2008 07:00 10.5 C 85 % 1002.5 hPa 0.2 l/m 15.1 km/h (3 Bft) SW 0.00 h 11 W/m 8.1 C 10.5 C 27.1 km/h (4 Bft)
12.03.2008 08:00 11.1 C 80 % 1002.6 hPa 0.0 l/m 15.3 km/h (3 Bft) SW 0.00 h 32 W/m 7.8 C 11.1 C 26.7 km/h (4 Bft)
12.03.2008 09:00 11.6 C 77 % 1002.4 hPa 0.0 l/m 15.0 km/h (3 Bft) SW 0.00 h 69 W/m 7.7 C 11.6 C 26.4 km/h (4 Bft)
12.03.2008 10:00 9.9 C 87 % 1003.7 hPa 5.2 l/m 18.9 km/h (3 Bft) W 0.00 h 52 W/m 7.9 C 8.3 C 29.9 km/h (5 Bft)
12.03.2008 11:00 9.5 C 93 % 1004.8 hPa 4.0 l/m 21.6 km/h (4 Bft) W 0.00 h 92 W/m 8.4 C 6.8 C 32.8 km/h (5 Bft)
12.03.2008 12:00 9.6 C 92 % 1005.0 hPa 3.0 l/m 17.4 km/h (3 Bft) W 0.00 h 109 W/m 8.5 C 7.5 C 26.1 km/h (4 Bft)
12.03.2008 13:00 11.2 C 82 % 1004.3 hPa 0.6 l/m 21.6 km/h (4 Bft) W 0.32 h 332 W/m 8.2 C 11.2 C 32.3 km/h (5 Bft)
12.03.2008 14:00 10.6 C 82 % 1004.8 hPa 1.6 l/m 25.1 km/h (4 Bft) W 0.22 h 194 W/m 7.8 C 9.9 C 36.5 km/h (5 Bft)
12.03.2008 15:00 11.5 C 72 % 1005.7 hPa 0.0 l/m 22.9 km/h (4 Bft) W 0.08 h 144 W/m 6.7 C 11.5 C 33.7 km/h (5 Bft)
12.03.2008 16:00 11.1 C 63 % 1006.9 hPa 0.0 l/m 28.0 km/h (4 Bft) W 0.08 h 104 W/m 4.3 C 11.1 C 40.9 km/h (6 Bft)
12.03.2008 17:00 9.0 C 77 % 1009.1 hPa 0.0 l/m 20.7 km/h (4 Bft) W 0.05 h 40 W/m 5.1 C 6.4 C 31.5 km/h (5 Bft)
12.03.2008 18:00 8.4 C 73 % 1010.8 hPa 0.2 l/m 23.0 km/h (4 Bft) W 0.02 h 13 W/m 3.7 C 5.1 C 34.3 km/h (5 Bft)
12.03.2008 19:00 7.8 C 63 % 1012.6 hPa 0.0 l/m 18.2 km/h (3 Bft) W 0.00 h 0 W/m 1.2 C 5.0 C 27.5 km/h (4 Bft)
12.03.2008 20:00 7.4 C 63 % 1013.9 hPa 0.0 l/m 12.7 km/h (3 Bft) W 0.00 h 0 W/m 0.8 C 5.1 C 20.0 km/h (4 Bft)
12.03.2008 21:00 7.2 C 65 % 1015.2 hPa 0.0 l/m 11.3 km/h (2 Bft) W 0.00 h 0 W/m 1.1 C 5.2 C 17.6 km/h (3 Bft)
12.03.2008 22:00 7.2 C 63 % 1016.2 hPa 0.0 l/m 13.6 km/h (3 Bft) W 0.00 h 0 W/m 0.7 C 4.7 C 21.1 km/h (4 Bft)
12.03.2008 23:00 7.3 C 58 % 1016.8 hPa 0.0 l/m 15.5 km/h (3 Bft) W 0.00 h 0 W/m -0.6 C 4.6 C 23.9 km/h (4 Bft)
13.03.2008 00:00 6.9 C 58 % 1017.5 hPa 0.0 l/m 17.8 km/h (3 Bft) W 0.00 h 0 W/m -0.8 C 3.7 C 26.7 km/h (4 Bft)
13.03.2008 01:00 6.7 C 60 % 1017.6 hPa 0.0 l/m 15.6 km/h (3 Bft) W 0.00 h 0 W/m -0.5 C 3.8 C 24.0 km/h (4 Bft)
13.03.2008 02:00 6.3 C 62 % 1017.8 hPa 0.0 l/m 19.6 km/h (3 Bft) W 0.00 h 0 W/m -0.5 C 2.8 C 29.0 km/h (5 Bft)
13.03.2008 03:00 5.9 C 63 % 1017.7 hPa 0.0 l/m 20.9 km/h (4 Bft) W 0.00 h 0 W/m -0.6 C 2.2 C 30.5 km/h (5 Bft)
13.03.2008 04:00 5.9 C 61 % 1017.7 hPa 0.0 l/m 18.6 km/h (3 Bft) W 0.00 h 0 W/m -1.0 C 2.4 C 27.3 km/h (4 Bft)
13.03.2008 05:00 6.3 C 59 % 1017.9 hPa 0.0 l/m 19.8 km/h (3 Bft) W 0.00 h 0 W/m -1.0 C 2.8 C 29.5 km/h (5 Bft)
13.03.2008 06:00 6.3 C 61 % 1018.4 hPa 0.0 l/m 18.0 km/h (3 Bft) W 0.00 h 7 W/m -0.8 C 3.0 C 27.4 km/h (4 Bft)
13.03.2008 07:00 6.4 C 61 % 1018.8 hPa 0.0 l/m 15.3 km/h (3 Bft) W 0.00 h 32 W/m -0.5 C 3.5 C 22.8 km/h (4 Bft)
13.03.2008 08:00 6.3 C 68 % 1019.4 hPa 0.0 l/m 14.9 km/h (3 Bft) W 0.00 h 60 W/m 0.9 C 3.5 C 22.6 km/h (4 Bft)
13.03.2008 09:00 6.6 C 74 % 1019.8 hPa 0.0 l/m 12.7 km/h (3 Bft) W 0.10 h 180 W/m 2.2 C 4.1 C 19.2 km/h (3 Bft)
13.03.2008 10:00 7.6 C 68 % 1019.7 hPa 0.0 l/m 16.8 km/h (3 Bft) W 0.03 h 176 W/m 2.1 C 4.7 C 25.3 km/h (4 Bft)
13.03.2008 11:00 8.4 C 64 % 1019.5 hPa 0.0 l/m 17.7 km/h (3 Bft) W 0.33 h 288 W/m 1.9 C 5.6 C 27.1 km/h (4 Bft)
13.03.2008 12:00 8.7 C 59 % 1019.4 hPa 0.0 l/m 16.3 km/h (3 Bft) W 0.00 h 163 W/m 1.2 C 6.2 C 24.8 km/h (4 Bft)
13.03.2008 13:00 9.2 C 56 % 1019.1 hPa 0.0 l/m 12.9 km/h (3 Bft) W 0.00 h 184 W/m 0.8 C 7.3 C 19.9 km/h (4 Bft)
13.03.2008 14:00 9.3 C 54 % 1018.9 hPa 0.0 l/m 11.7 km/h (2 Bft) W 0.00 h 148 W/m 0.4 C 7.6 C 18.4 km/h (3 Bft)
13.03.2008 15:00 9.5 C 53 % 1018.7 hPa 0.0 l/m 9.5 km/h (2 Bft) W 0.00 h 102 W/m 0.3 C 8.2 C 14.6 km/h (3 Bft)
13.03.2008 16:00 9.3 C 53 % 1018.6 hPa 0.0 l/m 10.1 km/h (2 Bft) W 0.00 h 45 W/m 0.1 C 7.8 C 15.7 km/h (3 Bft)
13.03.2008 17:00 9.0 C 55 % 1018.7 hPa 0.0 l/m 7.0 km/h (2 Bft) W-NW 0.00 h 12 W/m 0.4 C 8.1 C 10.1 km/h (2 Bft)
13.03.2008 18:00 8.6 C 58 % 1018.8 hPa 0.0 l/m 2.9 km/h (1 Bft) W 0.00 h 0 W/m 0.8 C 8.4 C 5.2 km/h (1 Bft)
13.03.2008 19:00 8.4 C 58 % 1018.9 hPa 0.0 l/m 3.2 km/h (1 Bft) W-SW 0.00 h 0 W/m 0.7 C 8.1 C 5.9 km/h (2 Bft)
13.03.2008 20:00 7.9 C 61 % 1019.0 hPa 0.0 l/m 0.8 km/h (0 Bft) SW 0.00 h 0 W/m 0.9 C 7.9 C 2.3 km/h (1 Bft)
13.03.2008 21:00 7.2 C 67 % 1018.7 hPa 0.0 l/m 2.1 km/h (1 Bft) S-SO 0.00 h 0 W/m 1.5 C 7.1 C 3.1 km/h (1 Bft)
13.03.2008 22:00 7.1 C 66 % 1018.6 hPa 0.0 l/m 3.5 km/h (1 Bft) S-SO 0.00 h 0 W/m 1.3 C 6.9 C 5.3 km/h (1 Bft)
13.03.2008 23:00 7.1 C 67 % 1018.3 hPa 0.0 l/m 4.0 km/h (1 Bft) S-SO 0.00 h 0 W/m 1.4 C 6.8 C 6.5 km/h (2 Bft)
14.03.2008 00:00 6.9 C 68 % 1017.7 hPa 0.0 l/m 3.7 km/h (1 Bft) S-SO 0.00 h 0 W/m 1.4 C 6.6 C 6.9 km/h (2 Bft)
14.03.2008 01:00 7.1 C 68 % 1016.9 hPa 0.0 l/m 5.7 km/h (1 Bft) S-SO 0.00 h 0 W/m 1.6 C 6.2 C 10.0 km/h (2 Bft)
14.03.2008 02:00 7.2 C 72 % 1016.0 hPa 0.0 l/m 6.2 km/h (2 Bft) S 0.00 h 0 W/m 2.5 C 6.3 C 11.7 km/h (2 Bft)
14.03.2008 03:00 6.6 C 82 % 1015.2 hPa 0.8 l/m 4.3 km/h (1 Bft) S-SW 0.00 h 0 W/m 3.8 C 6.1 C 8.3 km/h (2 Bft)
14.03.2008 04:00 6.1 C 89 % 1014.8 hPa 1.2 l/m 0.4 km/h (0 Bft) W 0.00 h 0 W/m 4.4 C 6.1 C 1.2 km/h (1 Bft)
14.03.2008 05:00 6.1 C 92 % 1014.7 hPa 1.0 l/m 2.3 km/h (1 Bft) S-SO 0.00 h 0 W/m 4.9 C 6.0 C 5.2 km/h (1 Bft)
14.03.2008 06:00 6.3 C 95 % 1014.7 hPa 1.0 l/m 5.6 km/h (1 Bft) S-SW 0.00 h 5 W/m 5.5 C 5.4 C 9.5 km/h (2 Bft)
14.03.2008 07:00 6.4 C 95 % 1015.0 hPa 0.8 l/m 7.1 km/h (2 Bft) S-SW 0.00 h 13 W/m 5.7 C 5.1 C 13.1 km/h (3 Bft)
14.03.2008 08:00 6.8 C 95 % 1015.4 hPa 0.6 l/m 6.6 km/h (2 Bft) S-SW 0.00 h 41 W/m 6.1 C 5.7 C 12.6 km/h (3 Bft)
14.03.2008 09:00 7.5 C 95 % 1015.8 hPa 0.6 l/m 6.6 km/h (2 Bft) S 0.00 h 47 W/m 6.8 C 6.5 C 12.5 km/h (3 Bft)
14.03.2008 10:00 8.1 C 92 % 1015.8 hPa 0.2 l/m 5.7 km/h (1 Bft) S 0.00 h 44 W/m 6.9 C 7.3 C 10.8 km/h (2 Bft)
14.03.2008 11:00 9.0 C 89 % 1015.7 hPa 0.0 l/m 3.2 km/h (1 Bft) W-SW 0.12 h 128 W/m 7.4 C 9.0 C 6.4 km/h (2 Bft)
14.03.2008 12:00 11.9 C 82 % 1015.3 hPa 0.0 l/m 2.1 km/h (1 Bft) W-SW 0.28 h 323 W/m 8.9 C 11.9 C 4.1 km/h (1 Bft)
14.03.2008 13:00 13.7 C 72 % 1014.8 hPa 0.0 l/m 4.2 km/h (1 Bft) W-SW 0.02 h 280 W/m 8.7 C 13.7 C 6.8 km/h (2 Bft)
14.03.2008 14:00 14.0 C 66 % 1014.5 hPa 0.0 l/m 8.7 km/h (2 Bft) W 0.00 h 124 W/m 7.7 C 14.0 C 13.7 km/h (3 Bft)
14.03.2008 15:00 13.7 C 65 % 1014.5 hPa 0.0 l/m 9.4 km/h (2 Bft) W-NW 0.00 h 44 W/m 7.1 C 13.7 C 14.2 km/h (3 Bft)
14.03.2008 16:00 13.3 C 66 % 1014.6 hPa 0.0 l/m 8.1 km/h (2 Bft) W-NW 0.00 h 57 W/m 7.0 C 13.3 C 12.9 km/h (3 Bft)
14.03.2008 17:00 13.4 C 65 % 1014.6 hPa 0.0 l/m 7.9 km/h (2 Bft) W 0.00 h 32 W/m 7.0 C 13.4 C 11.8 km/h (2 Bft)
14.03.2008 18:00 13.0 C 66 % 1014.8 hPa 0.0 l/m 6.2 km/h (2 Bft) W 0.00 h 12 W/m 6.7 C 13.0 C 9.0 km/h (2 Bft)
14.03.2008 19:00 12.3 C 68 % 1015.2 hPa 0.0 l/m 3.3 km/h (1 Bft) W-NW 0.00 h 0 W/m 6.7 C 12.3 C 5.3 km/h (1 Bft)
14.03.2008 20:00 10.9 C 72 % 1015.7 hPa 0.0 l/m 4.0 km/h (1 Bft) O-SO 0.00 h 0 W/m 6.1 C 10.7 C 5.6 km/h (1 Bft)
14.03.2008 21:00 9.2 C 78 % 1016.2 hPa 0.0 l/m 4.4 km/h (1 Bft) O-SO 0.00 h 0 W/m 5.5 C 8.8 C 5.9 km/h (2 Bft)
14.03.2008 22:00 8.0 C 81 % 1016.4 hPa 0.0 l/m 0.7 km/h (0 Bft) O-SO 0.00 h 0 W/m 4.8 C 8.0 C 1.8 km/h (1 Bft)
14.03.2008 23:00 7.1 C 83 % 1016.6 hPa 0.0 l/m 2.4 km/h (1 Bft) O-SO 0.00 h 0 W/m 4.4 C 7.0 C 3.9 km/h (1 Bft)
15.03.2008 00:00 5.8 C 87 % 1016.4 hPa 0.0 l/m 2.5 km/h (1 Bft) O-SO 0.00 h 0 W/m 3.8 C 5.6 C 3.1 km/h (1 Bft)
15.03.2008 01:00 4.9 C 89 % 1016.1 hPa 0.0 l/m 0.1 km/h (0 Bft) O-SO 0.00 h 0 W/m 3.3 C 4.9 C 0.3 km/h (0 Bft)
15.03.2008 02:00 3.9 C 92 % 1015.9 hPa 0.0 l/m 0.2 km/h (0 Bft) O-SO 0.00 h 0 W/m 2.7 C 3.9 C 0.7 km/h (0 Bft)
15.03.2008 03:00 3.4 C 94 % 1015.5 hPa 0.0 l/m 0.6 km/h (0 Bft) O-SO 0.00 h 0 W/m 2.5 C 3.4 C 1.3 km/h (1 Bft)
15.03.2008 04:00 2.7 C 95 % 1015.1 hPa 0.0 l/m 0.5 km/h (0 Bft) O-SO 0.00 h 0 W/m 2.0 C 2.7 C 1.2 km/h (1 Bft)
15.03.2008 05:00 2.4 C 96 % 1015.2 hPa 0.0 l/m 0.3 km/h (0 Bft) O-SO 0.00 h 0 W/m 1.9 C 2.4 C 0.8 km/h (0 Bft)
15.03.2008 06:00 2.2 C 97 % 1014.9 hPa 0.0 l/m 0.1 km/h (0 Bft) O-SO 0.17 h 11 W/m 1.7 C 2.2 C 0.6 km/h (0 Bft)
15.03.2008 07:00 2.2 C 97 % 1014.7 hPa 0.0 l/m 0.2 km/h (0 Bft) O-SO 0.43 h 64 W/m 1.8 C 2.2 C 0.7 km/h (0 Bft)
15.03.2008 08:00 3.0 C 98 % 1014.7 hPa 0.0 l/m 0.1 km/h (0 Bft) O-SO 0.12 h 123 W/m 2.8 C 3.0 C 1.0 km/h (0 Bft)
15.03.2008 09:00 4.6 C 100 % 1014.3 hPa 0.0 l/m 0.1 km/h (0 Bft) O-SO 0.87 h 281 W/m 4.6 C 4.6 C 0.7 km/h (0 Bft)
15.03.2008 10:00 8.5 C 87 % 1013.5 hPa 0.0 l/m 1.0 km/h (0 Bft) O-SO 1.00 h 464 W/m 6.5 C 8.5 C 2.4 km/h (1 Bft)
15.03.2008 11:00 11.6 C 71 % 1012.7 hPa 0.0 l/m 2.0 km/h (1 Bft) O-SO 1.00 h 552 W/m 6.4 C 11.6 C 3.8 km/h (1 Bft)
15.03.2008 12:00 13.8 C 64 % 1011.1 hPa 0.0 l/m 2.2 km/h (1 Bft) O-SO 1.00 h 623 W/m 7.2 C 13.8 C 4.5 km/h (1 Bft)
15.03.2008 13:00 15.8 C 57 % 1009.8 hPa 0.0 l/m 2.3 km/h (1 Bft) SO 1.00 h 606 W/m 7.4 C 15.8 C 4.7 km/h (1 Bft)
15.03.2008 14:00 16.4 C 55 % 1008.6 hPa 0.0 l/m 0.9 km/h (0 Bft) SO 0.93 h 370 W/m 7.3 C 16.4 C 2.5 km/h (1 Bft)
15.03.2008 15:00 16.6 C 53 % 1007.6 hPa 0.0 l/m 0.5 km/h (0 Bft) SO 0.85 h 276 W/m 6.9 C 16.6 C 1.6 km/h (1 Bft)
15.03.2008 16:00 16.9 C 48 % 1006.7 hPa 0.0 l/m 0.5 km/h (0 Bft) SO 0.70 h 208 W/m 5.9 C 16.9 C 1.7 km/h (1 Bft)
15.03.2008 17:00 16.4 C 49 % 1005.9 hPa 0.0 l/m 0.2 km/h (0 Bft) SO 0.12 h 72 W/m 5.6 C 16.4 C 0.6 km/h (0 Bft)
15.03.2008 18:00 14.1 C 59 % 1005.2 hPa 0.0 l/m 2.9 km/h (1 Bft) SO 0.03 h 15 W/m 6.3 C 14.1 C 4.5 km/h (1 Bft)
15.03.2008 19:00 11.5 C 75 % 1004.8 hPa 0.0 l/m 0.7 km/h (0 Bft) O-SO 0.00 h 0 W/m 7.2 C 11.5 C 1.6 km/h (1 Bft)
15.03.2008 20:00 10.0 C 80 % 1004.7 hPa 0.0 l/m 0.5 km/h (0 Bft) O-SO 0.00 h 0 W/m 6.8 C 10.0 C 1.0 km/h (0 Bft)
15.03.2008 21:00 9.6 C 84 % 1004.5 hPa 0.0 l/m 0.6 km/h (0 Bft) O-SO 0.00 h 0 W/m 7.0 C 9.6 C 1.1 km/h (0 Bft)
15.03.2008 22:00 9.1 C 87 % 1004.9 hPa 0.0 l/m 1.1 km/h (0 Bft) O-SO 0.00 h 0 W/m 7.1 C 9.1 C 2.1 km/h (1 Bft)
15.03.2008 23:00 9.0 C 88 % 1005.7 hPa 0.0 l/m 4.5 km/h (1 Bft) O-SO 0.00 h 0 W/m 7.1 C 8.6 C 6.7 km/h (2 Bft)
16.03.2008 00:00 11.6 C 73 % 1006.8 hPa 0.2 l/m 25.1 km/h (4 Bft) W 0.00 h 0 W/m 6.9 C 11.5 C 37.3 km/h (5 Bft)
16.03.2008 01:00 10.2 C 81 % 1007.8 hPa 0.4 l/m 8.7 km/h (2 Bft) W-SW 0.00 h 0 W/m 7.0 C 9.9 C 14.2 km/h (3 Bft)
16.03.2008 02:00 9.8 C 78 % 1007.6 hPa 0.0 l/m 6.6 km/h (2 Bft) SW 0.00 h 0 W/m 6.2 C 9.2 C 11.4 km/h (2 Bft)
16.03.2008 03:00 9.9 C 75 % 1006.8 hPa 0.0 l/m 4.2 km/h (1 Bft) S-SW 0.00 h 0 W/m 5.7 C 9.7 C 7.8 km/h (2 Bft)
16.03.2008 04:00 9.6 C 78 % 1006.1 hPa 0.0 l/m 3.4 km/h (1 Bft) S-SW 0.00 h 0 W/m 6.0 C 9.6 C 6.9 km/h (2 Bft)
16.03.2008 05:00 9.7 C 75 % 1005.9 hPa 0.0 l/m 7.1 km/h (2 Bft) S-SW 0.00 h 0 W/m 5.5 C 9.0 C 12.5 km/h (3 Bft)
16.03.2008 06:00 9.7 C 71 % 1006.0 hPa 0.0 l/m 7.9 km/h (2 Bft) SW 0.00 h 9 W/m 4.7 C 8.7 C 14.1 km/h (3 Bft)
16.03.2008 07:00 9.8 C 64 % 1006.1 hPa 0.0 l/m 10.2 km/h (2 Bft) W-SW 0.05 h 41 W/m 3.3 C 8.4 C 16.5 km/h (3 Bft)
16.03.2008 08:00 10.0 C 61 % 1006.1 hPa 0.0 l/m 10.3 km/h (2 Bft) W-SW 0.22 h 134 W/m 2.8 C 8.9 C 16.4 km/h (3 Bft)
16.03.2008 09:00 11.4 C 54 % 1005.9 hPa 0.0 l/m 13.6 km/h (3 Bft) W-SW 0.20 h 224 W/m 2.5 C 11.4 C 22.3 km/h (4 Bft)
16.03.2008 10:00 12.3 C 52 % 1005.5 hPa 0.0 l/m 16.7 km/h (3 Bft) W 0.42 h 374 W/m 2.7 C 12.3 C 26.2 km/h (4 Bft)
16.03.2008 11:00 12.5 C 52 % 1005.5 hPa 0.0 l/m 21.3 km/h (4 Bft) W 0.53 h 384 W/m 2.8 C 12.5 C 32.3 km/h (5 Bft)
16.03.2008 12:00 12.9 C 51 % 1005.4 hPa 0.0 l/m 15.5 km/h (3 Bft) W 0.47 h 384 W/m 3.0 C 12.9 C 24.4 km/h (4 Bft)
16.03.2008 13:00 13.2 C 52 % 1005.1 hPa 0.0 l/m 17.3 km/h (3 Bft) W-SW 0.63 h 421 W/m 3.5 C 13.1 C 26.8 km/h (4 Bft)
16.03.2008 14:00 10.5 C 66 % 1005.7 hPa 0.0 l/m 12.9 km/h (3 Bft) W 0.03 h 200 W/m 4.3 C 10.2 C 21.4 km/h (4 Bft)
16.03.2008 15:00 11.3 C 59 % 1005.4 hPa 0.0 l/m 13.6 km/h (3 Bft) W 0.40 h 218 W/m 3.7 C 11.3 C 21.0 km/h (4 Bft)
16.03.2008 16:00 11.0 C 61 % 1005.3 hPa 0.0 l/m 12.7 km/h (3 Bft) W 0.03 h 112 W/m 3.6 C 11.0 C 20.5 km/h (4 Bft)
16.03.2008 17:00 10.6 C 62 % 1005.0 hPa 0.0 l/m 9.3 km/h (2 Bft) SW 0.13 h 62 W/m 3.7 C 10.4 C 15.3 km/h (3 Bft)
16.03.2008 18:00 9.0 C 74 % 1005.5 hPa 0.4 l/m 8.4 km/h (2 Bft) S-SW 0.00 h 5 W/m 4.6 C 7.8 C 14.6 km/h (3 Bft)
16.03.2008 19:00 7.8 C 83 % 1005.7 hPa 0.2 l/m 7.2 km/h (2 Bft) S-SW 0.00 h 0 W/m 5.1 C 6.7 C 12.6 km/h (3 Bft)
16.03.2008 20:00 7.4 C 86 % 1005.9 hPa 1.0 l/m 7.5 km/h (2 Bft) SW 0.00 h 0 W/m 5.3 C 6.1 C 13.0 km/h (3 Bft)
16.03.2008 21:00 6.8 C 92 % 1006.2 hPa 0.8 l/m 5.4 km/h (1 Bft) S-SW 0.00 h 0 W/m 5.6 C 6.1 C 9.6 km/h (2 Bft)
16.03.2008 22:00 7.0 C 91 % 1006.2 hPa 0.0 l/m 6.2 km/h (2 Bft) S-SW 0.00 h 0 W/m 5.7 C 6.0 C 10.6 km/h (2 Bft)
16.03.2008 23:00 7.4 C 85 % 1006.1 hPa 0.0 l/m 6.3 km/h (2 Bft) S-SW 0.00 h 0 W/m 5.1 C 6.4 C 11.0 km/h (2 Bft)
Min-Datum _ 14.03.08 11.03.08 10.03.08 - 10.03.08 - - - 11.03.08 10.03.08 10.03.08
_ Min-Zeit 00:10 14:03 17:30 - 00:01 - - - 14:04 06:22 00:01
Minimum _ 0.0 C 42 % 991.7 hPa - 0.0 km/h (0 Bft) - - - -2.2 C 1.2 C 0.0 km/h (0 Bft)
Max-Datum _ 15.03.08 15.03.08 13.03.08 12.03.08 12.03.08 - 10.03.08 16.03.08 14.03.08 15.03.08 12.03.08
_ Max-Zeit 16:38 09:15 08:45 10:21 16:38 - 07:00 13:24 12:57 16:38 16:48
Maximum _ 17.5 C 100 % 1020.0 hPa 5.2 l/m 45.2 km/h
W (6 Bft)
- 0.02 h 983 W/m 9.9 C 17.5 C 67.8 km/h
W (8 Bft)
Durchschnitt _ 8.7 C 74 % 1008.1 hPa #36.2 l/m 8.1 km/h (2 Bft) W #18:18 h 163 W/m 4.1 C 7.9 C 13.2 km/h (3 Bft)
© Kaiko 2008